Time;durP1;ratioP1;P1;durP2;ratioP2;P2;SDS_P1;SDS_P2;PMS_P1;PMS_P2;Temp;Humidity;BMP_temperature;BMP_pressure;BME280_temperature;BME280_humidity;BME280_pressure;Samples;Min_cycle;Max_cycle;Signal;HPM_P1;HPM_P2
2022/08/11 00:01:16;;;;;;;8.57;6.40;;;20.70;99.90;;;;;;4989287;28;20042;-48
2022/08/11 00:03:54;;;;;;;8.40;6.32;;;20.70;99.90;;;;;;4990278;28;20097;-48
2022/08/11 00:06:31;;;;;;;7.93;5.97;;;20.70;99.90;;;;;;4993366;28;20549;-48
2022/08/11 00:08:59;;;;;;;7.47;5.78;;;20.60;99.90;;;;;;4994126;28;20026;-48
2022/08/11 00:11:35;;;;;;;9.73;6.82;;;20.50;99.90;;;;;;4993291;28;20405;-49
2022/08/11 00:14:03;;;;;;;7.82;6.50;;;20.40;99.90;;;;;;4989236;28;20038;-48
2022/08/11 00:16:30;;;;;;;8.52;6.55;;;20.60;99.90;;;;;;4993862;28;20038;-48
2022/08/11 00:18:57;;;;;;;13.65;6.82;;;20.50;99.90;;;;;;4993161;28;20038;-49
2022/08/11 00:21:25;;;;;;;7.97;6.93;;;20.60;99.90;;;;;;4993274;28;20086;-48
2022/08/11 00:23:56;;;;;;;11.25;6.97;;;20.60;99.90;;;;;;4993059;28;20413;-48
2022/08/11 00:26:24;;;;;;;7.10;6.35;;;20.50;99.90;;;;;;4976646;28;20081;-48
2022/08/11 00:28:50;;;;;;;7.47;6.50;;;20.50;99.90;;;;;;4992703;28;20464;-48
2022/08/11 00:31:30;;;;;;;7.07;6.35;;;20.50;99.90;;;;;;4961552;28;20497;-48
2022/08/11 00:33:58;;;;;;;8.32;6.60;;;20.50;99.90;;;;;;4955967;28;20046;-49
2022/08/11 00:36:38;;;;;;;8.73;6.18;;;20.50;99.90;;;;;;4979773;28;20042;-48
2022/08/11 00:39:05;;;;;;;8.77;5.65;;;20.50;99.90;;;;;;4947781;28;20039;-48
2022/08/11 00:41:43;;;;;;;10.63;6.68;;;20.40;99.90;;;;;;4993393;28;20077;-49
2022/08/11 00:44:20;;;;;;;9.85;6.43;;;20.40;99.90;;;;;;4960251;28;20511;-48
2022/08/11 00:47:07;;;;;;;6.97;6.20;;;20.40;99.90;;;;;;4960049;28;20038;-49
2022/08/11 00:49:59;;;;;;;8.35;6.53;;;20.40;99.90;;;;;;4992432;28;20034;-49
2022/08/11 00:52:25;;;;;;;;;;;20.40;99.90;;;;;;4990924;28;20097;-49
2022/08/11 00:54:57;;;;;;;7.05;6.32;;;20.40;99.90;;;;;;4992507;28;20370;-48
2022/08/11 00:57:38;;;;;;;7.93;6.10;;;20.40;99.90;;;;;;4999109;28;20069;-48
2022/08/11 01:00:12;;;;;;;9.65;6.00;;;20.40;99.90;;;;;;4968780;28;20044;-48
2022/08/11 01:02:47;;;;;;;8.65;6.07;;;20.40;99.90;;;;;;5012150;28;20053;-48
2022/08/11 01:05:43;;;;;;;7.78;6.53;;;20.30;99.90;;;;;;5011967;28;20042;-48
2022/08/11 01:08:31;;;;;;;6.43;5.65;;;20.20;99.90;;;;;;5046371;28;20067;-48
2022/08/11 01:11:24;;;;;;;7.15;6.30;;;20.20;99.90;;;;;;5018984;28;20045;-49
2022/08/11 01:14:14;;;;;;;9.52;6.32;;;20.20;99.90;;;;;;5054000;28;20526;-48
2022/08/11 01:17:28;;;;;;;7.65;6.20;;;20.20;99.90;;;;;;5053867;28;20028;-49
2022/08/11 01:20:21;;;;;;;6.78;6.07;;;20.20;99.90;;;;;;5050841;28;20116;-48
2022/08/11 01:22:58;;;;;;;;;;;20.20;99.90;;;;;;5052958;28;20039;-48
2022/08/11 01:25:45;;;;;;;6.72;5.95;;;20.10;99.90;;;;;;5053552;28;19974;-49
2022/08/11 01:28:29;;;;;;;7.95;5.95;;;20.10;99.90;;;;;;5010207;28;20048;-48
2022/08/11 01:31:13;;;;;;;7.32;6.05;;;20.10;99.90;;;;;;5049818;28;20111;-48
2022/08/11 01:34:06;;;;;;;8.32;6.07;;;20.20;99.90;;;;;;5051031;28;20028;-48
2022/08/11 01:36:44;;;;;;;9.43;5.80;;;20.10;99.90;;;;;;5053655;28;20384;-48
2022/08/11 01:39:18;;;;;;;6.25;5.65;;;20.10;99.90;;;;;;5029330;28;20389;-48
2022/08/11 01:44:55;;;;;;;6.93;6.00;;;20.00;99.90;;;;;;5053228;28;20097;-49
2022/08/11 01:50:10;;;;;;;8.95;6.95;;;20.00;99.90;;;;;;5053537;28;20044;-48
2022/08/11 01:53:04;;;;;;;7.75;5.90;;;19.90;99.90;;;;;;5053124;28;20025;-48
2022/08/11 01:55:38;;;;;;;10.27;6.70;;;19.90;99.90;;;;;;5051534;28;20435;-49
2022/08/11 01:58:19;;;;;;;7.20;5.60;;;19.90;99.90;;;;;;5052849;28;20076;-49
2022/08/11 02:01:00;;;;;;;10.63;6.78;;;19.90;99.90;;;;;;5053042;28;20483;-48
2022/08/11 02:03:43;;;;;;;6.78;6.13;;;19.90;99.90;;;;;;5053574;28;20071;-48
2022/08/11 02:06:55;;;;;;;7.25;6.07;;;19.90;99.90;;;;;;5052818;28;20036;-49
2022/08/11 02:09:46;;;;;;;6.63;6.00;;;19.80;99.90;;;;;;5051653;28;20072;-48
2022/08/11 02:12:40;;;;;;;9.15;6.18;;;19.70;99.90;;;;;;5011737;28;20037;-48
2022/08/11 02:15:14;;;;;;;7.05;6.15;;;19.70;99.90;;;;;;5052944;28;20361;-48
2022/08/11 02:17:39;;;;;;;10.50;6.60;;;19.90;99.90;;;;;;5053148;28;20384;-48
2022/08/11 02:24:05;;;;;;;7.28;5.85;;;19.90;99.90;;;;;;4952384;29;20071;-48
2022/08/11 02:26:52;;;;;;;8.18;5.90;;;19.60;99.90;;;;;;4949939;28;20035;-49
2022/08/11 02:29:21;;;;;;;7.32;5.88;;;19.70;99.90;;;;;;4951277;29;20075;-48
2022/08/11 02:35:24;;;;;;;7.00;5.72;;;19.80;99.90;;;;;;4952833;29;20558;-48
2022/08/11 02:38:10;;;;;;;8.70;5.65;;;19.70;99.90;;;;;;4952189;29;20535;-48
2022/08/11 02:40:57;;;;;;;7.22;5.88;;;19.80;99.90;;;;;;4952075;29;20110;-48
2022/08/11 02:43:56;;;;;;;11.60;6.68;;;19.70;99.90;;;;;;4951853;29;20419;-48
2022/08/11 02:47:17;;;;;;;7.35;5.75;;;19.70;99.90;;;;;;4948966;29;20031;-48
2022/08/11 02:49:54;;;;;;;10.05;5.88;;;19.70;99.90;;;;;;4930346;29;20649;-49
2022/08/11 02:52:57;;;;;;;6.05;5.38;;;19.70;99.90;;;;;;4916437;29;20039;-48
2022/08/11 02:55:31;;;;;;;7.10;5.85;;;19.70;99.90;;;;;;4885115;29;20047;-48
2022/08/11 02:58:14;;;;;;;9.63;5.85;;;19.70;99.90;;;;;;4994163;28;20045;-49
2022/08/11 03:00:52;;;;;;;7.68;5.68;;;19.50;99.90;;;;;;4999562;28;20027;-48
2022/08/11 03:03:32;;;;;;;6.18;5.15;;;19.60;99.90;;;;;;5001655;28;20069;-49
2022/08/11 03:06:23;;;;;;;7.25;5.10;;;19.60;99.90;;;;;;5001749;28;20030;-48
2022/08/11 03:08:59;;;;;;;6.57;5.05;;;19.50;99.90;;;;;;4994357;28;20077;-48
2022/08/11 03:18:05;;;;;;;6.65;5.30;;;19.60;99.90;;;;;;5005071;28;20061;-48
2022/08/11 03:20:54;;;;;;;6.65;5.57;;;19.50;99.90;;;;;;4970461;28;20035;-48
2022/08/11 03:23:36;;;;;;;7.15;5.32;;;19.50;99.90;;;;;;4950644;29;20035;-48
2022/08/11 03:26:32;;;;;;;10.43;5.57;;;19.50;99.90;;;;;;4951055;29;20126;-48
2022/08/11 03:29:10;;;;;;;7.38;5.32;;;19.40;99.90;;;;;;4959300;28;20431;-48
2022/08/11 03:31:48;;;;;;;10.88;5.53;;;19.40;99.90;;;;;;4970172;28;20163;-49
2022/08/11 03:34:24;;;;;;;11.50;5.65;;;19.50;99.90;;;;;;4970317;28;20035;-48
2022/08/11 03:43:47;;;;;;;8.65;5.35;;;19.50;99.90;;;;;;4965781;28;20054;-49
2022/08/11 03:46:43;;;;;;;10.88;5.75;;;19.40;99.90;;;;;;4970794;28;20035;-48
2022/08/11 03:49:37;;;;;;;8.40;5.20;;;19.50;99.90;;;;;;4931468;29;20571;-48
2022/08/11 03:52:41;;;;;;;11.70;5.70;;;19.40;99.90;;;;;;4930031;29;20048;-48
2022/08/11 03:55:15;;;;;;;6.72;4.93;;;19.50;99.90;;;;;;4928131;29;20047;-48
2022/08/11 03:58:02;;;;;;;7.28;5.32;;;19.50;99.90;;;;;;4916068;29;20143;-48
2022/08/11 04:00:53;;;;;;;6.30;5.10;;;19.50;99.90;;;;;;4905610;29;20047;-48
2022/08/11 04:03:57;;;;;;;8.80;5.60;;;19.60;99.90;;;;;;4939367;29;20038;-48
2022/08/11 04:06:52;;;;;;;6.88;5.00;;;19.50;99.90;;;;;;4940767;28;20053;-48
2022/08/11 04:09:45;;;;;;;6.20;4.90;;;19.50;99.90;;;;;;4932735;29;20040;-48
2022/08/11 04:12:25;;;;;;;6.80;5.40;;;19.40;99.90;;;;;;4946997;28;20130;-49
2022/08/11 04:17:56;;;;;;;11.13;5.18;;;19.10;99.90;;;;;;4944260;29;20509;-49
2022/08/11 04:21:03;;;;;;;9.23;5.72;;;19.20;99.90;;;;;;4951007;29;20047;-48
2022/08/11 04:24:06;;;;;;;7.28;5.25;;;19.30;99.90;;;;;;4921063;29;20044;-49
2022/08/11 04:26:36;;;;;;;11.18;5.82;;;19.40;99.90;;;;;;4938411;29;20090;-48
2022/08/11 04:29:23;;;;;;;6.75;5.45;;;19.50;99.90;;;;;;4946287;28;20145;-48
2022/08/11 04:31:52;;;;;;;6.95;5.10;;;19.40;99.90;;;;;;4947876;29;20044;-48
2022/08/11 04:34:45;;;;;;;6.45;5.03;;;19.50;99.90;;;;;;4932019;29;20063;-48
2022/08/11 04:37:33;;;;;;;6.80;5.30;;;19.50;99.90;;;;;;4948793;29;20099;-48
2022/08/11 04:40:09;;;;;;;8.85;4.95;;;19.50;99.90;;;;;;4949590;29;20054;-48
2022/08/11 04:43:20;;;;;;;7.30;5.18;;;19.50;99.90;;;;;;4949095;29;20094;-48
2022/08/11 04:46:07;;;;;;;9.55;5.10;;;19.60;99.90;;;;;;4949591;29;20475;-48
2022/08/11 05:01:51;;;;;;;6.40;5.18;;;19.80;99.90;;;;;;5015299;28;20125;-48
2022/08/11 05:07:16;;;;;;;7.05;4.75;;;19.90;99.90;;;;;;5034803;28;20041;-48
2022/08/11 05:10:02;;;;;;;6.05;4.70;;;19.90;99.90;;;;;;5033808;28;20042;-48
2022/08/11 05:12:35;;;;;;;8.48;4.40;;;20.00;99.90;;;;;;5033676;28;20428;-48
2022/08/11 05:35:32;;;;;;;5.85;4.28;;;20.20;99.90;;;;;;5033186;28;20052;-48
2022/08/11 05:57:34;;;;;;;9.35;4.57;;;20.90;99.90;;;;;;5032072;28;20411;-46
2022/08/11 06:00:00;;;;;;;;;;;21.00;99.90;;;;;;5033265;28;20029;-46
2022/08/11 06:02:27;;;;;;;9.07;4.90;;;21.00;99.90;;;;;;5028437;28;20379;-47
2022/08/11 06:05:00;;;;;;;6.55;4.10;;;20.90;99.90;;;;;;5033397;28;20161;-47
2022/08/11 06:07:29;;;;;;;9.38;5.00;;;21.20;99.90;;;;;;5032612;28;20032;-47
2022/08/11 06:09:57;;;;;;;4.95;4.35;;;21.30;99.90;;;;;;5032938;28;20037;-46
2022/08/11 06:12:24;;;;;;;7.93;4.28;;;21.40;99.90;;;;;;5032927;28;20116;-47
2022/08/11 06:14:54;;;;;;;8.98;4.90;;;21.60;99.90;;;;;;5029673;28;20132;-47
2022/08/11 06:17:25;;;;;;;8.68;4.75;;;21.50;99.90;;;;;;5032815;28;20040;-47
2022/08/11 06:20:04;;;;;;;6.17;4.93;;;21.50;99.90;;;;;;5021303;28;20037;-46
2022/08/11 06:22:31;;;;;;;13.25;4.82;;;21.50;99.90;;;;;;4959545;28;20038;-46
2022/08/11 06:25:02;;;;;;;7.03;4.40;;;21.60;99.90;;;;;;5032822;28;20109;-46
2022/08/11 06:27:34;;;;;;;8.98;4.68;;;21.60;99.90;;;;;;5028425;28;20460;-47
2022/08/11 06:30:02;;;;;;;7.53;4.47;;;21.70;99.90;;;;;;5033172;28;20473;-47
2022/08/11 06:32:40;;;;;;;12.32;4.47;;;21.70;99.90;;;;;;5032310;28;20037;-46
2022/08/11 06:35:29;;;;;;;5.75;4.10;;;21.80;99.90;;;;;;5032777;28;20025;-46
2022/08/11 06:38:09;;;;;;;9.27;4.25;;;21.90;99.90;;;;;;5026910;28;20047;-46
2022/08/11 06:43:56;;;;;;;11.05;4.22;;;22.10;99.90;;;;;;5032228;28;20171;-46
2022/08/11 06:46:27;;;;;;;;;;;22.20;99.90;;;;;;5033320;28;20873;-46
2022/08/11 06:48:55;;;;;;;6.85;3.78;;;22.20;99.90;;;;;;5032209;28;19917;-47
2022/08/11 06:51:21;;;;;;;5.70;4.10;;;22.30;99.90;;;;;;5028073;28;20029;-46
2022/08/11 06:53:58;;;;;;;5.60;3.75;;;;;;;;;;5032238;28;20029;-46
2022/08/11 07:02:14;;;;;;;5.78;3.40;;;22.90;99.90;;;;;;5032445;28;20121;-46
2022/08/11 07:04:42;;;;;;;7.22;3.60;;;22.90;99.90;;;;;;5031712;28;20037;-46
2022/08/11 07:16:06;;;;;;;12.18;4.50;;;23.40;99.90;;;;;;5029013;28;20052;-46
2022/08/11 07:30:01;;;;;;;6.55;3.80;;;23.80;99.90;;;;;;5031200;28;20051;-46
2022/08/11 07:32:32;;;;;;;7.90;3.35;;;24.00;99.90;;;;;;5031931;28;20075;-46
2022/08/11 07:35:15;;;;;;;3.72;3.00;;;23.90;99.90;;;;;;5032183;28;20092;-46
2022/08/11 07:37:46;;;;;;;6.63;3.55;;;23.80;99.90;;;;;;5013695;28;20037;-46
2022/08/11 07:40:13;;;;;;;6.05;2.92;;;24.00;99.90;;;;;;5031411;28;20068;-46
2022/08/11 07:42:45;;;;;;;3.50;3.00;;;24.10;99.90;;;;;;5031388;28;20557;-46
2022/08/11 07:53:29;;;;;;;5.85;3.00;;;24.40;99.90;;;;;;5029881;28;20582;-46
2022/08/11 07:55:57;;;;;;;4.97;3.05;;;24.60;99.90;;;;;;5033760;28;20060;-46
2022/08/11 08:17:52;;;;;;;5.57;3.00;;;;;;;;;;5028951;28;20397;-46
2022/08/11 08:20:23;;;;;;;5.38;3.63;;;;;;;;;;5038837;28;20090;-46
2022/08/11 08:22:55;;;;;;;7.90;3.87;;;25.50;99.90;;;;;;5036864;28;20068;-46
2022/08/11 08:25:27;;;;;;;12.57;3.15;;;25.50;99.90;;;;;;5032868;28;20037;-46
2022/08/11 08:27:53;;;;;;;3.50;2.70;;;;;;;;;;5032729;28;20091;-46
2022/08/11 08:33:04;;;;;;;5.88;3.33;;;25.90;99.90;;;;;;5037522;28;20040;-47
2022/08/11 08:35:31;;;;;;;5.85;3.40;;;26.00;99.90;;;;;;5039448;28;20025;-46
2022/08/11 08:37:59;;;;;;;5.63;2.50;;;26.10;99.90;;;;;;5042711;28;20044;-46
2022/08/11 08:40:25;;;;;;;7.03;3.53;;;26.20;99.90;;;;;;5036400;28;20041;-46
2022/08/11 08:43:09;;;;;;;4.82;2.75;;;26.30;99.90;;;;;;5042580;28;20044;-46
2022/08/11 08:45:36;;;;;;;4.35;2.45;;;;;;;;;;5033417;28;20072;-46
2022/08/11 08:48:10;;;;;;;5.15;2.78;;;26.80;99.90;;;;;;5038456;28;20041;-46
2022/08/11 08:53:34;;;;;;;7.45;3.53;;;27.20;99.90;;;;;;5033042;28;20072;-46
2022/08/11 08:56:01;;;;;;;3.55;2.60;;;27.40;99.90;;;;;;5034422;28;20025;-46
2022/08/11 08:58:29;;;;;;;3.15;2.58;;;27.50;99.90;;;;;;5033421;28;20148;-46
2022/08/11 09:00:57;;;;;;;3.38;2.63;;;27.70;99.70;;;;;;5033106;28;20044;-47
2022/08/11 09:03:23;;;;;;;10.15;6.22;;;27.70;98.50;;;;;;5034108;28;20060;-46
2022/08/11 09:05:53;;;;;;;30.92;12.52;;;;;;;;;;5039295;28;20036;-46
2022/08/11 09:08:20;;;;;;;22.40;10.75;;;;;;;;;;5037378;28;20029;-47
2022/08/11 09:11:48;;;;;;;11.60;7.53;;;;;;;;;;5042495;28;20116;-46
2022/08/11 09:13:34;;;;;;;4.88;3.30;;;28.40;99.90;;;;;;5037921;28;20456;-46
2022/08/11 09:16:01;;;;;;;8.20;3.15;;;28.40;99.90;;;;;;5035104;28;20432;-46
2022/08/11 09:18:28;;;;;;;6.10;2.60;;;;;;;;;;5036555;28;20211;-46
2022/08/11 09:20:55;;;;;;;3.42;2.70;;;;;;;;;;5033982;28;20033;-46
2022/08/11 09:28:51;;;;;;;2.90;2.35;;;29.30;95.10;;;;;;5030565;28;20548;-45
2022/08/11 09:31:18;;;;;;;4.07;2.53;;;29.50;94.50;;;;;;5035798;28;20029;-46
2022/08/11 09:33:45;;;;;;;4.95;3.40;;;29.50;93.90;;;;;;4990492;28;20056;-46
2022/08/11 09:42:03;;;;;;;8.13;3.47;;;29.30;92.60;;;;;;5037378;28;20094;-48
2022/08/11 09:44:48;;;;;;;7.95;2.95;;;29.70;93.20;;;;;;5008294;28;20073;-46
2022/08/11 09:47:20;;;;;;;4.35;2.10;;;;;;;;;;5029553;28;20038;-47
2022/08/11 09:49:47;;;;;;;6.82;2.60;;;30.10;91.90;;;;;;5039253;28;20037;-47
2022/08/11 09:52:14;;;;;;;4.55;2.90;;;30.40;91.50;;;;;;5039002;28;20041;-46
2022/08/11 09:54:45;;;;;;;3.70;2.38;;;30.50;91.30;;;;;;5035954;28;20030;-46
2022/08/11 09:59:56;;;;;;;4.40;1.80;;;30.20;89.90;;;;;;4992876;28;20064;-47
2022/08/11 10:02:26;;;;;;;16.00;7.47;;;30.60;88.40;;;;;;5022276;28;20533;-45
2022/08/11 10:07:00;;;;;;;10.70;5.65;;;30.60;88.80;;;;;;4972324;28;20038;-46
2022/08/11 10:07:51;;;;;;;5.25;2.60;;;30.30;88.60;;;;;;5033909;28;20071;-45
2022/08/11 10:10:21;;;;;;;4.57;2.50;;;30.30;89.00;;;;;;5033652;28;20021;-48
2022/08/11 10:12:48;;;;;;;3.80;2.20;;;;;;;;;;5033455;28;20402;-48
2022/08/11 10:15:36;;;;;;;3.45;2.47;;;;;;;;;;5036723;28;20037;-48
2022/08/11 10:20:50;;;;;;;3.30;2.10;;;31.30;88.00;;;;;;5036669;28;20087;-48
2022/08/11 10:28:47;;;;;;;5.18;2.05;;;31.10;84.40;;;;;;5036457;28;20055;-48
2022/08/11 10:34:02;;;;;;;4.95;1.80;;;31.60;82.80;;;;;;5033282;28;20056;-48
2022/08/11 10:36:45;;;;;;;2.83;1.90;;;31.20;81.60;;;;;;5044103;28;20043;-48
2022/08/11 10:39:17;;;;;;;4.85;2.00;;;31.50;82.50;;;;;;5038949;28;20389;-48
2022/08/11 10:44:42;;;;;;;3.33;1.90;;;31.90;82.90;;;;;;5040231;28;20041;-48
2022/08/11 11:00:57;;;;;;;4.65;2.20;;;31.80;81.40;;;;;;5012895;28;20064;-47
2022/08/11 11:03:29;;;;;;;1.95;1.73;;;31.90;81.60;;;;;;5036122;28;20380;-48
2022/08/11 11:06:24;;;;;;;4.13;2.20;;;32.30;81.30;;;;;;5034766;28;20473;-48
2022/08/11 11:09:01;;;;;;;7.65;2.10;;;32.50;82.30;;;;;;5031193;28;20041;-48
2022/08/11 11:19:38;;;;;;;4.95;2.05;;;32.10;82.00;;;;;;5041248;28;20068;-48
2022/08/11 11:25:17;;;;;;;3.70;2.03;;;32.60;80.70;;;;;;5032848;28;20041;-48
2022/08/11 11:27:49;;;;;;;2.90;2.00;;;32.40;79.80;;;;;;5003703;28;20485;-47
2022/08/11 11:30:17;;;;;;;2.88;2.58;;;32.90;79.00;;;;;;5036522;28;20033;-47
2022/08/11 11:33:05;;;;;;;3.03;1.77;;;32.80;78.80;;;;;;5035708;28;20037;-47
2022/08/11 11:35:34;;;;;;;3.50;1.77;;;;;;;;;;5039317;28;20071;-48
2022/08/11 11:38:01;;;;;;;5.35;1.70;;;33.60;93.80;;;;;;5039748;28;20029;-48
2022/08/11 11:40:28;;;;;;;1.67;1.58;;;;;;;;;;5034503;28;20031;-47
2022/08/11 11:42:57;;;;;;;3.00;1.70;;;34.00;81.40;;;;;;5035960;28;20033;-47
2022/08/11 11:45:24;;;;;;;3.22;1.77;;;34.20;77.80;;;;;;5037261;28;20481;-47
2022/08/11 11:47:53;;;;;;;4.32;1.80;;;34.40;76.80;;;;;;5036665;28;20358;-48
2022/08/11 11:50:30;;;;;;;4.50;1.73;;;33.90;77.00;;;;;;5042404;28;20025;-48
2022/08/11 11:52:59;;;;;;;2.65;1.67;;;32.90;76.60;;;;;;5039940;28;20464;-48
2022/08/11 11:55:26;;;;;;;2.08;1.80;;;32.70;77.90;;;;;;5035634;28;20032;-48
2022/08/11 12:03:23;;;;;;;2.60;1.52;;;33.20;76.10;;;;;;5040622;28;20399;-48
2022/08/11 12:05:51;;;;;;;2.33;1.65;;;33.30;76.60;;;;;;5037099;28;20091;-48
2022/08/11 12:08:18;;;;;;;6.70;2.00;;;33.20;76.30;;;;;;5046217;28;20099;-48
2022/08/11 12:13:42;;;;;;;4.50;1.83;;;34.00;75.90;;;;;;5037977;28;20048;-48
2022/08/11 12:16:11;;;;;;;4.05;1.77;;;33.80;77.10;;;;;;4994789;28;20409;-48
2022/08/11 12:18:37;;;;;;;3.15;2.00;;;33.40;76.20;;;;;;4978607;28;20042;-48
2022/08/11 12:21:04;;;;;;;3.22;1.95;;;33.30;76.70;;;;;;5034530;28;20033;-48
2022/08/11 12:29:05;;;;;;;3.65;1.77;;;33.90;75.50;;;;;;5038536;28;20401;-48
2022/08/11 12:31:36;;;;;;;4.00;1.92;;;33.70;75.40;;;;;;5043604;28;20051;-48
2022/08/11 12:34:10;;;;;;;1.92;1.55;;;;;;;;;;5042090;28;20029;-48
2022/08/11 12:36:39;;;;;;;4.53;1.67;;;34.80;74.20;;;;;;5036484;28;20388;-48
2022/08/11 12:39:08;;;;;;;2.38;1.58;;;34.80;73.10;;;;;;5033178;28;20457;-48
2022/08/11 12:47:09;;;;;;;2.58;1.73;;;33.90;72.30;;;;;;4977113;28;20121;-48
2022/08/11 12:52:33;;;;;;;1.73;1.55;;;32.90;73.00;;;;;;4977006;28;20402;-48
2022/08/11 12:58:14;;;;;;;2.53;1.83;;;32.20;72.50;;;;;;4980325;28;20041;-48
2022/08/11 12:58:17;;;;;;;3.53;1.48;;;;;;;;;;4978669;28;20057;-48
2022/08/11 13:06:18;;;;;;;7.50;2.33;;;31.30;75.40;;;;;;4977289;28;20575;-48
2022/08/11 13:08:45;;;;;;;9.98;2.25;;;;;;;;;;4971557;28;20050;-49
2022/08/11 13:14:15;;;;;;;4.75;2.08;;;31.00;75.70;;;;;;4913251;29;20548;-50
2022/08/11 13:19:29;;;;;;;2.78;2.25;;;31.50;75.50;;;;;;4947682;28;20103;-49
2022/08/11 13:21:56;;;;;;;5.07;2.17;;;31.90;75.30;;;;;;4929539;29;20048;-49
2022/08/11 13:24:23;;;;;;;2.78;2.10;;;32.40;74.90;;;;;;4931392;29;20127;-50
2022/08/11 13:26:50;;;;;;;4.43;1.98;;;32.40;73.60;;;;;;4934632;29;20479;-49
2022/08/11 13:29:24;;;;;;;3.95;2.10;;;32.90;73.10;;;;;;4935502;29;20054;-49
2022/08/11 13:31:52;;;;;;;5.47;1.88;;;33.00;73.40;;;;;;4934861;29;20072;-50
2022/08/11 13:34:20;;;;;;;5.40;2.03;;;32.50;72.90;;;;;;4900719;29;20039;-50
2022/08/11 13:36:50;;;;;;;5.57;2.17;;;32.20;73.70;;;;;;4904805;29;20506;-50
2022/08/11 13:39:17;;;;;;;4.63;1.93;;;31.70;74.00;;;;;;4937292;29;20039;-49
2022/08/11 13:41:44;;;;;;;3.38;2.05;;;31.40;73.80;;;;;;4920452;29;20039;-49
2022/08/11 13:44:12;;;;;;;2.22;1.83;;;31.30;74.40;;;;;;4949378;28;20052;-49
2022/08/11 13:46:39;;;;;;;3.47;2.08;;;31.00;74.00;;;;;;5016806;28;20065;-49
2022/08/11 13:49:07;;;;;;;3.92;2.10;;;31.00;73.70;;;;;;5018298;28;20720;-49
2022/08/11 13:51:34;;;;;;;3.80;2.15;;;30.70;74.10;;;;;;5018862;28;20116;-50
2022/08/11 13:54:08;;;;;;;6.25;2.58;;;30.50;73.70;;;;;;5036236;28;20037;-48
2022/08/11 13:56:38;;;;;;;5.07;1.90;;;30.50;74.50;;;;;;5033401;28;20021;-49
2022/08/11 13:59:07;;;;;;;4.80;2.10;;;30.20;74.70;;;;;;5033634;28;20493;-49
2022/08/11 14:01:36;;;;;;;6.93;2.10;;;30.20;74.30;;;;;;5036369;28;20039;-49
2022/08/11 14:04:13;;;;;;;2.78;1.90;;;29.90;74.50;;;;;;5035638;28;20539;-49
2022/08/11 14:06:43;;;;;;;5.57;2.63;;;;;;;;;;5032913;28;20488;-49
2022/08/11 14:09:10;;;;;;;4.93;1.90;;;;;;;;;;5034653;28;20053;-49
2022/08/11 14:14:34;;;;;;;2.88;2.00;;;29.50;74.00;;;;;;4983388;28;20058;-50
2022/08/11 14:17:08;;;;;;;;;;;29.60;86.20;;;;;;4982235;28;20051;-49
2022/08/11 14:19:48;;;;;;;4.78;1.58;;;29.70;90.10;;;;;;4942411;28;20041;-48
2022/08/11 14:22:16;;;;;;;2.90;1.60;;;29.80;76.90;;;;;;4974555;28;20041;-49
2022/08/11 14:24:47;;;;;;;4.40;1.58;;;30.20;76.80;;;;;;4978017;28;20082;-49
2022/08/11 14:27:14;;;;;;;5.50;1.70;;;30.60;73.30;;;;;;4977493;28;20505;-49
2022/08/11 14:29:42;;;;;;;2.15;1.45;;;30.70;72.20;;;;;;4975992;28;20070;-49
2022/08/11 14:32:11;;;;;;;3.42;1.20;;;31.00;72.40;;;;;;4934282;28;20093;-49
2022/08/11 14:34:41;;;;;;;3.30;1.40;;;31.40;71.70;;;;;;4976011;28;20592;-49
2022/08/11 14:37:10;;;;;;;4.90;1.52;;;31.50;71.60;;;;;;4975904;28;20062;-49
2022/08/11 14:39:49;;;;;;;5.13;1.55;;;31.90;71.50;;;;;;4976231;28;20494;-49
2022/08/11 14:48:03;;;;;;;4.20;1.83;;;32.30;70.20;;;;;;4974753;28;20085;-49
2022/08/11 14:50:30;;;;;;;3.13;1.60;;;;;;;;;;4981940;28;20041;-49
2022/08/11 14:53:03;;;;;;;5.53;1.58;;;33.00;69.60;;;;;;5033862;28;20064;-49
2022/08/11 14:58:28;;;;;;;2.42;1.40;;;32.50;69.20;;;;;;5034822;28;20115;-50
2022/08/11 15:00:57;;;;;;;2.08;1.30;;;32.40;69.40;;;;;;5030860;28;20029;-49
2022/08/11 15:03:24;;;;;;;1.30;1.00;;;32.40;87.90;;;;;;5032683;28;20025;-50
2022/08/11 15:05:52;;;;;;;2.75;1.38;;;32.20;75.50;;;;;;4995246;28;20029;-50
2022/08/11 15:08:19;;;;;;;1.75;1.00;;;32.40;76.50;;;;;;5029726;28;20051;-49
2022/08/11 15:10:48;;;;;;;2.30;1.48;;;32.30;75.30;;;;;;5029882;28;20531;-50
2022/08/11 15:13:17;;;;;;;4.10;1.45;;;32.30;75.10;;;;;;4989290;28;20060;-49
2022/08/11 15:18:29;;;;;;;1.73;1.10;;;32.10;74.60;;;;;;5032200;28;20047;-45
2022/08/11 15:37:42;;;;;;;1.45;1.02;;;31.60;68.80;;;;;;5031136;28;20043;-46
2022/08/11 15:46:05;;;;;;;2.30;1.00;;;31.40;68.20;;;;;;4971146;28;20079;-47
2022/08/11 15:48:56;;;;;;;6.90;1.10;;;31.10;68.00;;;;;;5027305;28;20485;-46
2022/08/11 15:51:36;;;;;;;5.30;1.58;;;31.30;68.60;;;;;;5032599;28;20036;-47
2022/08/11 15:54:10;;;;;;;4.00;0.90;;;31.00;68.60;;;;;;5032205;28;20124;-47
2022/08/11 15:56:45;;;;;;;3.60;1.00;;;30.80;68.80;;;;;;5030491;28;20033;-46
2022/08/11 16:04:48;;;;;;;8.25;1.52;;;30.80;68.20;;;;;;5033271;28;20122;-46
2022/08/11 16:07:25;;;;;;;1.45;0.80;;;30.70;79.10;;;;;;5035196;28;20180;-46
2022/08/11 16:10:00;;;;;;;3.55;1.00;;;30.20;68.20;;;;;;5042692;28;20183;-47
2022/08/11 16:12:28;;;;;;;3.05;0.90;;;;;;;;;;5031355;28;20465;-47
2022/08/11 16:18:05;;;;;;;3.25;0.85;;;29.40;68.20;;;;;;5030081;28;20041;-46
2022/08/11 16:20:33;;;;;;;2.70;1.00;;;29.20;69.00;;;;;;5031304;28;20041;-47
2022/08/11 16:23:03;;;;;;;4.10;1.45;;;29.10;69.40;;;;;;5048202;28;20142;-47
2022/08/11 16:25:33;;;;;;;4.20;1.02;;;29.10;69.30;;;;;;5036829;28;20060;-46
2022/08/11 16:28:04;;;;;;;3.15;2.05;;;;;;;;;;5033782;28;20036;-46
2022/08/11 16:30:30;;;;;;;;;;;29.30;69.00;;;;;;5037371;28;20033;-47
2022/08/11 16:32:57;;;;;;;5.28;1.92;;;29.50;69.50;;;;;;5046777;28;19905;-46
2022/08/11 16:40:58;;;;;;;3.78;1.08;;;29.50;69.20;;;;;;5033942;28;20083;-48
2022/08/11 16:49:03;;;;;;;2.65;1.13;;;29.60;69.30;;;;;;5034374;28;20068;-47
2022/08/11 16:51:30;;;;;;;6.22;3.13;;;29.50;69.20;;;;;;5036047;28;20055;-48
2022/08/11 16:53:56;;;;;;;4.38;1.00;;;29.50;69.40;;;;;;5000638;28;20480;-47
2022/08/11 16:56:34;;;;;;;1.98;1.08;;;29.60;69.40;;;;;;5033524;28;20061;-47
2022/08/11 16:59:13;;;;;;;4.30;0.73;;;29.50;69.20;;;;;;5034371;28;20052;-48
2022/08/11 17:01:45;;;;;;;1.35;1.00;;;29.40;69.50;;;;;;5041942;28;20025;-47
2022/08/11 17:18:06;;;;;;;5.53;1.25;;;28.80;70.50;;;;;;5030670;28;20036;-47
2022/08/11 17:20:33;;;;;;;3.33;1.55;;;;;;;;;;5030156;28;20033;-47
2022/08/11 17:25:47;;;;;;;4.57;1.40;;;28.30;70.20;;;;;;5033451;28;20116;-47
2022/08/11 17:28:14;;;;;;;2.72;1.20;;;;;;;;;;5014853;28;20476;-48
2022/08/11 17:36:15;;;;;;;6.60;1.60;;;27.80;71.20;;;;;;5036058;28;20175;-47
2022/08/11 17:38:44;;;;;;;2.40;1.52;;;27.70;82.90;;;;;;5032111;28;20028;-47
2022/08/11 17:49:36;;;;;;;7.38;1.92;;;27.30;81.00;;;;;;5034561;28;20060;-47
2022/08/11 18:00:23;;;;;;;8.45;2.22;;;26.70;74.50;;;;;;5032655;28;20632;-48
2022/08/11 18:05:42;;;;;;;4.93;1.67;;;26.70;74.60;;;;;;5050578;28;20059;-47
